This is the latest recevied weather packets stored in our database for station/object BMCB-31. If no packets are shown the sender has not sent any weather packets the latest 10 day(s).
| Time | Temp. | Humidity | Pressure | Rain* | Wind** | Luminosity | Snow |
|---|---|---|---|---|---|---|---|
| 1777999859 | 10.56° C | 10% | 1009.8 hPa | 2.29 mm | - | - | - |
| 1777998660 | 10.56° C | 10% | 1009.9 hPa | 1.78 mm | - | - | - |
| 1777998059 | 10.56° C | 10% | 1009.9 hPa | 1.52 mm | - | - | - |
| 1777995657 | 10.56° C | 99% | 1010.1 hPa | 0.25 mm | - | 26 W/m² | - |
| 1777991457 | 11.67° C | 97% | 1010.1 hPa | 0 mm | - | 54 W/m² | - |
| 1777988457 | 12.22° C | 96% | 1010.2 hPa | 0.51 mm | - | 94 W/m² | - |
| 1777987856 | 12.22° C | 96% | 1010.2 hPa | 0.51 mm | - | 152 W/m² | - |
| 1777987257 | 12.22° C | 96% | 1010.3 hPa | 0.51 mm | - | 120 W/m² | - |
| 1777984254 | 13.33° C | 90% | 1010.4 hPa | 0 mm | - | 102 W/m² | - |
| 1777980056 | 12.78° C | 89% | 1010.8 hPa | 0 mm | - | 144 W/m² | - |
| 1777972255 | 12.78° C | 92% | 1011.3 hPa | 0 mm | - | 118 W/m² | - |
| 1777971654 | 12.78° C | 90% | 1011.3 hPa | 0 mm | - | 122 W/m² | - |
| 1777971056 | 12.78° C | 91% | 1011.3 hPa | 0 mm | - | 136 W/m² | - |
| 1777965059 | 11.67° C | 98% | 1011.8 hPa | 0 mm | - | 90 W/m² | - |
| 1777960858 | 10.56° C | 10% | 1012.1 hPa | 0 mm | - | - | - |
| 1777957255 | 10.56° C | 10% | 1012.1 hPa | 0 mm | - | - | - |
| 1777956053 | 10.56° C | 10% | 1012.2 hPa | 0 mm | - | - | - |
| 1777954856 | 10.56° C | 99% | 1012.2 hPa | 0 mm | - | 0 W/m² | - |
| 1777953655 | 10.56° C | 99% | 1012.1 hPa | 0 mm | - | 0 W/m² | - |
| 1777947059 | 11.11° C | 97% | 1013 hPa | 0 mm | - | 0 W/m² | - |
| 1777937460 | 10.56° C | 99% | 1013.8 hPa | 0 mm | - | 0 W/m² | - |
| 1777936860 | 10.56° C | 99% | 1013.9 hPa | 0 mm | - | 0 W/m² | - |
| 1777935659 | 10.56° C | 98% | 1014.1 hPa | 0 mm | - | 0 W/m² | - |
| 1777930259 | 11.11° C | 96% | 1014.8 hPa | 0 mm | - | 0 W/m² | - |
| 1777927266 | 11.11° C | 95% | 1015 hPa | 0 mm | - | 0 W/m² | - |
* Rain latest hour (hover to see other rain measurements)
** Current wind speed in m/s (hover to see current wind gust speed)